Nearby METAR Reports

 

YCOM - Cooma Snowy Mtns, Australia
Distance from station: NE 158km
Updated: 07/10/2022 14:07
NOT Current
Mostly cloudy
Mostly cloudy
 Wind from NNE
Wind: NNE 19 km/h
Temperature: 14°C
Dew Point: 13°C
Humidity: 94%
Barometer: 1013 hPa
Clouds: Mostly cloudy
Visibility: 10 km
Cloud details: Partly cloudy 305 m
Mostly cloudy 762 m
Mostly cloudy 1494 m
2022/10/07 03:07 YCOM 070307Z AUTO 03010KT 9999 // SCT010 BKN025 BKN049 14/13 Q1013
YMAY - Albury Airport, Australia
Distance from station: NNW 165km
Updated: 07/10/2022 23:00
Overcast
Overcast
 Wind from calm
Wind: Calm
Temperature: 15°C
Dew Point: 15°C
Humidity: 100%
Barometer: 1012 hPa
Clouds: Overcast
Visibility: 5 km
Cloud details: Partly cloudy 2408 m
Overcast 3048 m
2022/10/07 12:00 YMAY 071200Z AUTO 00000KT 5000 // SCT079 OVC100 15/15 Q1012
 
YWGT - Wangaratta Airport, Australia
Distance from station: NW 172km
Updated: 07/10/2022 21:30
NOT Current
Mostly cloudy
Mostly cloudy
 Wind from WNW
Wind: WNW 7 km/h
Temperature: 13°C
Dew Point: 13°C
Humidity: 100%
Barometer: 1012 hPa
Clouds: Mostly cloudy
Visibility: 1 km
Cloud details: Partly cloudy 1036 m
Mostly cloudy 2225 m
Mostly cloudy 3353 m
2022/10/07 10:30 YWGT 071030Z AUTO 30004KT 0700 // SCT034 BKN073 BKN110 13/13 Q1012
YMER - Merimbula Airport, Australia
Distance from station: ENE 192km
Updated: 07/10/2022 23:00
Mist, Mostly cloudy
Mist, Mostly cloudy
 Wind from calm
Wind: Calm
Temperature: 13°C
Dew Point: 13°C
Humidity: 100%
Barometer: 1011 hPa
Summary: Mist
Clouds: Mostly cloudy
Visibility: 1 km
Cloud details: Partly cloudy 30 m
Mostly cloudy 2347 m
2022/10/07 12:00 YMER 071200Z AUTO 00000KT 1400 BR SCT001 BKN077 13/13 Q1011